»·PEaware :: DAL429 KSFO-KLAX

DAL429 :: KSFO-KLAX

FLIGHT INFORMATION

Flight Status: Arrived
Operator:
Delta Air Lines
More flights by this operator :: More flights under this callsign
Pilot: Henderson P. (1210)
Aircraft: BOEING 737-800
(B738)
More flights by this aircraft type
Origin: KSFO San Francisco Intl
United States
Destination: KLAX Los Angeles Intl
United States
More flights between these airports :: More routes between these airports
Route: SSTIK4 EBAYE BURGL IRNMN2
File this flight plan on PilotEdge
Remarks:
Altitude:
(Current/Filed)
33,000ft
Speed:
(Current/Filed)
461kts
Departed: 20-Sep-18 10:43 AM
Arrived: 20-Sep-18 11:42 AM
Distance/Time
Traveled:
293nm/0:59
Distance/Time
To Go:
Arrived

Flight Plot

Page will automatically refresh every two minutes.

Flight plan parsing failed; only flown route is shown


Map Options




Map Legend


Flown Route
Filed Route
Departure Airport
Arrival Airport
Navaid (VOR, NDB)
Fix

Horizontal Profiles

Position Reports

Time Latitude Longitude Heading Altitude Ground
Speed
20-Sep-18 09:34 37.614809 -122.381753 301 21ft 0kts
20-Sep-18 09:35 37.614809 -122.381753 301 21ft 0kts
20-Sep-18 09:36 37.614809 -122.381753 301 21ft 0kts
20-Sep-18 09:37 37.614809 -122.381753 301 21ft 0kts
20-Sep-18 09:38 37.614809 -122.381753 301 21ft 0kts
20-Sep-18 09:39 37.614809 -122.381753 301 21ft 0kts
20-Sep-18 09:40 37.614809 -122.381753 301 21ft 0kts
20-Sep-18 09:41 37.614809 -122.381753 301 21ft 0kts
20-Sep-18 09:42 37.614809 -122.381753 301 21ft 0kts
20-Sep-18 09:43 37.614809 -122.381753 301 21ft 0kts
20-Sep-18 09:44 37.614809 -122.381753 301 21ft 0kts
20-Sep-18 09:45 37.614809 -122.381753 301 21ft 0kts
20-Sep-18 09:46 37.614809 -122.381753 301 21ft 0kts
20-Sep-18 09:47 37.614809 -122.381753 301 21ft 0kts
20-Sep-18 09:48 37.614809 -122.381753 301 21ft 0kts
20-Sep-18 09:49 37.614809 -122.381753 301 21ft 0kts
20-Sep-18 09:50 37.614809 -122.381753 301 21ft 0kts
20-Sep-18 09:51 37.614809 -122.381753 301 21ft 0kts
20-Sep-18 09:52 37.614809 -122.381753 301 21ft 0kts
20-Sep-18 09:53 37.614809 -122.381753 301 21ft 0kts
20-Sep-18 09:54 37.614809 -122.381753 301 21ft 0kts
20-Sep-18 09:55 37.614809 -122.381753 301 21ft 0kts
20-Sep-18 09:56 37.614809 -122.381753 301 21ft 0kts
20-Sep-18 09:57 37.614809 -122.381753 301 21ft 0kts
20-Sep-18 09:58 37.614809 -122.381753 301 21ft 0kts
20-Sep-18 09:59 37.614809 -122.381753 301 21ft 0kts
20-Sep-18 10:00 37.614809 -122.381753 301 21ft 0kts
20-Sep-18 10:01 37.614809 -122.381753 301 21ft 0kts
20-Sep-18 10:02 37.614809 -122.381753 301 21ft 0kts
20-Sep-18 10:03 37.614809 -122.381753 301 21ft 0kts
20-Sep-18 10:04 37.614809 -122.381753 301 21ft 0kts
20-Sep-18 10:05 37.614809 -122.381753 301 21ft 0kts
20-Sep-18 10:06 37.614809 -122.381753 301 21ft 0kts
20-Sep-18 10:07 37.614809 -122.381753 301 21ft 0kts
20-Sep-18 10:08 37.614809 -122.381753 301 21ft 0kts
20-Sep-18 10:09 37.614809 -122.381753 301 21ft 0kts
20-Sep-18 10:10 37.614809 -122.381753 301 21ft 0kts
20-Sep-18 10:11 37.614809 -122.381753 301 21ft 0kts
20-Sep-18 10:12 37.614809 -122.381753 301 21ft 0kts
20-Sep-18 10:13 37.614809 -122.381753 301 21ft 0kts
20-Sep-18 10:14 37.614809 -122.381753 301 21ft 0kts
20-Sep-18 10:15 37.614809 -122.381753 301 21ft 0kts
20-Sep-18 10:16 37.614809 -122.381753 301 21ft 0kts
20-Sep-18 10:17 37.614809 -122.381753 301 21ft 0kts
20-Sep-18 10:18 37.614809 -122.381753 301 21ft 0kts
20-Sep-18 10:19 37.614809 -122.381753 301 21ft 0kts
20-Sep-18 10:20 37.614809 -122.381753 301 21ft 0kts
20-Sep-18 10:21 37.614809 -122.381753 301 21ft 0kts
20-Sep-18 10:22 37.614809 -122.381753 301 21ft 0kts
20-Sep-18 10:23 37.614809 -122.381753 301 21ft 0kts
20-Sep-18 10:24 37.614809 -122.381753 301 21ft 0kts
20-Sep-18 10:25 37.614809 -122.381753 301 21ft 0kts
20-Sep-18 10:26 37.614809 -122.381753 301 21ft 0kts
20-Sep-18 10:27 37.614676 -122.381442 289 21ft 2kts
20-Sep-18 10:28 37.614747 -122.380888 207 21ft 2kts
20-Sep-18 10:29 37.614974 -122.380737 207 21ft 0kts
20-Sep-18 10:30 37.614972 -122.380738 207 21ft 0kts
20-Sep-18 10:31 37.614968 -122.380741 207 21ft 0kts
20-Sep-18 10:32 37.611669 -122.382936 207 21ft 7kts
20-Sep-18 10:33 37.610857 -122.382745 150 21ft 6kts
20-Sep-18 10:34 37.609337 -122.383286 118 21ft 0kts
20-Sep-18 10:35 37.609336 -122.383284 118 21ft 0kts
20-Sep-18 10:36 37.609335 -122.383283 118 21ft 0kts
20-Sep-18 10:37 37.609335 -122.383281 118 21ft 0kts
20-Sep-18 10:38 37.609334 -122.383279 118 21ft 0kts
20-Sep-18 10:39 37.609333 -122.383277 118 21ft 0kts
20-Sep-18 10:40 37.609332 -122.383276 118 21ft 0kts
20-Sep-18 10:41 37.609332 -122.383274 118 21ft 0kts
20-Sep-18 10:42 37.609331 -122.383272 118 21ft 0kts
20-Sep-18 10:43 37.609330 -122.383270 118 21ft 0kts
20-Sep-18 10:44 37.609196 -122.382062 27 21ft 7kts
20-Sep-18 10:45 37.634102 -122.365633 26 692ft 160kts
20-Sep-18 10:46 37.677857 -122.362418 348 3338ft 161kts
20-Sep-18 10:47 37.674931 -122.419029 203 4666ft 261kts
20-Sep-18 10:48 37.597727 -122.436651 196 7255ft 295kts
20-Sep-18 10:49 37.516537 -122.465202 194 9883ft 307kts
20-Sep-18 10:50 37.441381 -122.419424 130 11072ft 346kts
20-Sep-18 10:51 37.374881 -122.322787 131 13169ft 382kts
20-Sep-18 10:52 37.301934 -122.221511 132 15933ft 398kts
20-Sep-18 10:53 37.225475 -122.117184 133 18461ft 414kts
20-Sep-18 10:54 37.145540 -122.008846 133 20333ft 428kts
20-Sep-18 10:55 37.063263 -121.898207 134 22384ft 442kts
20-Sep-18 10:56 36.977776 -121.783765 134 24127ft 456kts
20-Sep-18 10:57 36.897554 -121.676788 134 25660ft 465kts
20-Sep-18 10:58 36.808248 -121.558119 134 27145ft 475kts
20-Sep-18 10:59 36.716663 -121.436866 134 28487ft 484kts
20-Sep-18 11:00 36.624230 -121.314670 134 30251ft 481kts
20-Sep-18 11:01 36.536421 -121.199254 135 31937ft 476kts
20-Sep-18 11:02 36.445287 -121.080114 135 32953ft 478kts
20-Sep-18 11:03 36.357758 -120.956873 132 32966ft 475kts
20-Sep-18 11:04 36.271450 -120.832872 132 32971ft 475kts
20-Sep-18 11:05 36.185127 -120.709411 132 32972ft 475kts
20-Sep-18 11:06 36.098589 -120.585833 132 32971ft 474kts
20-Sep-18 11:07 36.011817 -120.462329 133 32972ft 475kts
20-Sep-18 11:08 35.924889 -120.339640 133 32974ft 475kts
20-Sep-18 11:09 35.828664 -120.229804 149 32974ft 470kts
20-Sep-18 11:10 35.717115 -120.146105 151 32973ft 469kts
20-Sep-18 11:11 35.605874 -120.062391 151 32962ft 469kts
20-Sep-18 11:12 35.494466 -119.978300 151 32955ft 469kts
20-Sep-18 11:13 35.383316 -119.894899 151 32956ft 469kts
20-Sep-18 11:14 35.272348 -119.810126 147 32972ft 471kts
20-Sep-18 11:15 35.168103 -119.712025 144 32690ft 473kts
20-Sep-18 11:16 35.071604 -119.621372 145 31484ft 471kts
20-Sep-18 11:17 34.966839 -119.524111 145 28059ft 473kts
20-Sep-18 11:18 34.863468 -119.429796 146 25410ft 456kts
20-Sep-18 11:19 34.764072 -119.341089 146 23883ft 422kts
20-Sep-18 11:20 34.671271 -119.259673 146 22138ft 409kts
20-Sep-18 11:21 34.584575 -119.184694 146 20362ft 392kts
20-Sep-18 11:22 34.504288 -119.114063 145 18403ft 378kts
20-Sep-18 11:23 34.423258 -119.042719 145 16798ft 373kts
20-Sep-18 11:24 34.340070 -118.970679 145 15189ft 363kts
20-Sep-18 11:25 34.260782 -118.898691 144 13319ft 352kts
20-Sep-18 11:26 34.185949 -118.829997 143 12509ft 315kts
20-Sep-18 11:27 34.121267 -118.763804 138 11482ft 305kts
20-Sep-18 11:28 34.060354 -118.697045 138 10792ft 288kts
20-Sep-18 11:29 34.024603 -118.615270 98 9749ft 277kts
20-Sep-18 11:30 34.017240 -118.531964 97 9362ft 246kts
20-Sep-18 11:31 34.014059 -118.464954 77 8344ft 238kts
20-Sep-18 11:32 34.023577 -118.384646 82 6536ft 247kts
20-Sep-18 11:33 34.032498 -118.306722 84 5901ft 226kts
20-Sep-18 11:34 34.040191 -118.239938 83 4936ft 210kts
20-Sep-18 11:35 34.047528 -118.174607 83 4024ft 193kts
20-Sep-18 11:36 34.054021 -118.115524 82 3977ft 174kts
20-Sep-18 11:37 34.032128 -118.084019 216 3402ft 174kts
20-Sep-18 11:38 34.001666 -118.129408 231 2988ft 174kts
20-Sep-18 11:39 33.990107 -118.184778 266 2998ft 176kts
20-Sep-18 11:40 33.981002 -118.239902 242 2966ft 173kts
20-Sep-18 11:41 33.962704 -118.291849 264 1916ft 164kts
20-Sep-18 11:42 33.958335 -118.341073 263 1121ft 135kts
20-Sep-18 11:43 33.953867 -118.384988 263 427ft 130kts
20-Sep-18 11:44 33.950035 -118.418296 233 134ft 19kts
20-Sep-18 11:45 33.948863 -118.420168 233 134ft 17kts
20-Sep-18 11:46 33.947144 -118.419415 84 134ft 25kts
20-Sep-18 11:47 33.947990 -118.412299 82 134ft 21kts
20-Sep-18 11:48 33.947975 -118.406089 187 134ft 10kts
20-Sep-18 11:49 33.947174 -118.406669 217 134ft 0kts
20-Sep-18 11:50 33.947170 -118.406673 217 134ft 0kts
20-Sep-18 11:51 33.947170 -118.406673 217 134ft 0kts
20-Sep-18 11:52 33.947170 -118.406673 217 134ft 0kts
20-Sep-18 11:53 33.947170 -118.406673 217 134ft 0kts
20-Sep-18 11:54 33.947170 -118.406673 217 134ft 0kts
20-Sep-18 11:55 33.947170 -118.406673 217 134ft 0kts
20-Sep-18 11:56 33.947170 -118.406673 217 134ft 0kts
20-Sep-18 11:57 33.947170 -118.406673 217 134ft 0kts
20-Sep-18 11:58 33.947170 -118.406673 217 134ft 0kts
20-Sep-18 11:59 33.947170 -118.406673 217 134ft 0kts

Navigation Log

Ident Type
Flight plan parsing failed, navigation log unavailable